sensor_id;sensor_type;location;lat;lon;timestamp;P1;durP1;ratioP1;P2;durP2;ratioP2
15271;SDS011;7737;51.578;7.268;2024-03-23T00:54:38;16.77;;;4.90;;
15271;SDS011;7737;51.578;7.268;2024-03-23T00:57:04;16.92;;;5.20;;
15271;SDS011;7737;51.578;7.268;2024-03-23T00:59:30;11.82;;;4.80;;
15271;SDS011;7737;51.578;7.268;2024-03-23T01:01:56;15.23;;;5.07;;
15271;SDS011;7737;51.578;7.268;2024-03-23T01:04:22;14.93;;;5.20;;
15271;SDS011;7737;51.578;7.268;2024-03-23T01:06:48;12.10;;;4.40;;
15271;SDS011;7737;51.578;7.268;2024-03-23T01:09:14;15.10;;;5.07;;
15271;SDS011;7737;51.578;7.268;2024-03-23T01:11:41;16.33;;;4.53;;
15271;SDS011;7737;51.578;7.268;2024-03-23T01:14:08;12.88;;;4.22;;
15271;SDS011;7737;51.578;7.268;2024-03-23T01:16:33;13.75;;;4.95;;
15271;SDS011;7737;51.578;7.268;2024-03-23T01:19:00;15.27;;;4.78;;
15271;SDS011;7737;51.578;7.268;2024-03-23T01:21:25;15.57;;;4.57;;
15271;SDS011;7737;51.578;7.268;2024-03-23T01:23:52;14.95;;;4.38;;
15271;SDS011;7737;51.578;7.268;2024-03-23T01:26:17;11.90;;;4.45;;
15271;SDS011;7737;51.578;7.268;2024-03-23T01:28:45;14.77;;;4.95;;
15271;SDS011;7737;51.578;7.268;2024-03-23T01:31:10;11.98;;;3.85;;
15271;SDS011;7737;51.578;7.268;2024-03-23T01:33:37;13.18;;;4.00;;
15271;SDS011;7737;51.578;7.268;2024-03-23T01:36:02;16.95;;;4.63;;
15271;SDS011;7737;51.578;7.268;2024-03-23T01:38:30;15.68;;;4.53;;
15271;SDS011;7737;51.578;7.268;2024-03-23T01:40:58;14.98;;;4.45;;
15271;SDS011;7737;51.578;7.268;2024-03-23T01:43:24;15.32;;;4.38;;
15271;SDS011;7737;51.578;7.268;2024-03-23T01:45:51;14.52;;;4.00;;
15271;SDS011;7737;51.578;7.268;2024-03-23T01:48:19;12.60;;;3.78;;
15271;SDS011;7737;51.578;7.268;2024-03-23T01:50:44;11.52;;;3.75;;
15271;SDS011;7737;51.578;7.268;2024-03-23T01:53:11;11.43;;;3.30;;
15271;SDS011;7737;51.578;7.268;2024-03-23T01:55:38;12.90;;;3.33;;
15271;SDS011;7737;51.578;7.268;2024-03-23T01:58:05;13.70;;;4.00;;
15271;SDS011;7737;51.578;7.268;2024-03-23T02:00:30;13.45;;;3.70;;
15271;SDS011;7737;51.578;7.268;2024-03-23T02:02:58;11.13;;;3.63;;
15271;SDS011;7737;51.578;7.268;2024-03-23T02:05:23;10.70;;;3.35;;
15271;SDS011;7737;51.578;7.268;2024-03-23T02:07:50;11.52;;;3.30;;
15271;SDS011;7737;51.578;7.268;2024-03-23T02:10:16;12.70;;;3.08;;
15271;SDS011;7737;51.578;7.268;2024-03-23T02:12:42;9.98;;;2.60;;
15271;SDS011;7737;51.578;7.268;2024-03-23T02:15:08;11.00;;;2.70;;
15271;SDS011;7737;51.578;7.268;2024-03-23T02:17:35;9.02;;;2.60;;
15271;SDS011;7737;51.578;7.268;2024-03-23T02:20:02;9.98;;;3.03;;
15271;SDS011;7737;51.578;7.268;2024-03-23T02:22:35;10.43;;;3.08;;
15271;SDS011;7737;51.578;7.268;2024-03-23T02:25:02;7.75;;;2.70;;
15271;SDS011;7737;51.578;7.268;2024-03-23T02:27:29;9.30;;;2.42;;
15271;SDS011;7737;51.578;7.268;2024-03-23T02:29:54;8.95;;;2.70;;
15271;SDS011;7737;51.578;7.268;2024-03-23T02:32:21;9.98;;;2.40;;
15271;SDS011;7737;51.578;7.268;2024-03-23T02:34:47;11.13;;;2.75;;
15271;SDS011;7737;51.578;7.268;2024-03-23T02:37:13;12.38;;;2.78;;
15271;SDS011;7737;51.578;7.268;2024-03-23T02:39:39;10.15;;;2.88;;
15271;SDS011;7737;51.578;7.268;2024-03-23T02:42:06;8.70;;;2.92;;
15271;SDS011;7737;51.578;7.268;2024-03-23T02:44:32;10.23;;;3.28;;
15271;SDS011;7737;51.578;7.268;2024-03-23T02:46:58;10.50;;;3.38;;
15271;SDS011;7737;51.578;7.268;2024-03-23T02:49:24;11.40;;;3.50;;
15271;SDS011;7737;51.578;7.268;2024-03-23T02:51:51;8.95;;;3.33;;
15271;SDS011;7737;51.578;7.268;2024-03-23T02:54:16;10.00;;;3.38;;
15271;SDS011;7737;51.578;7.268;2024-03-23T02:56:43;6.53;;;2.47;;
15271;SDS011;7737;51.578;7.268;2024-03-23T02:59:10;8.00;;;2.75;;
15271;SDS011;7737;51.578;7.268;2024-03-23T03:01:36;10.30;;;3.15;;
15271;SDS011;7737;51.578;7.268;2024-03-23T03:04:01;9.98;;;2.83;;
15271;SDS011;7737;51.578;7.268;2024-03-23T03:06:29;7.60;;;2.78;;
15271;SDS011;7737;51.578;7.268;2024-03-23T03:08:55;7.38;;;2.60;;
15271;SDS011;7737;51.578;7.268;2024-03-23T03:11:21;9.98;;;2.72;;
15271;SDS011;7737;51.578;7.268;2024-03-23T03:13:47;9.48;;;3.17;;
15271;SDS011;7737;51.578;7.268;2024-03-23T03:16:15;10.35;;;3.05;;
15271;SDS011;7737;51.578;7.268;2024-03-23T03:18:40;12.15;;;3.53;;
15271;SDS011;7737;51.578;7.268;2024-03-23T03:21:07;11.43;;;3.28;;
15271;SDS011;7737;51.578;7.268;2024-03-23T03:23:35;10.05;;;3.40;;
15271;SDS011;7737;51.578;7.268;2024-03-23T03:26:02;10.70;;;3.88;;
15271;SDS011;7737;51.578;7.268;2024-03-23T03:28:28;11.70;;;3.03;;
15271;SDS011;7737;51.578;7.268;2024-03-23T03:30:55;11.85;;;3.33;;
15271;SDS011;7737;51.578;7.268;2024-03-23T03:33:22;10.52;;;3.53;;
15271;SDS011;7737;51.578;7.268;2024-03-23T03:35:49;9.73;;;3.13;;
15271;SDS011;7737;51.578;7.268;2024-03-23T03:38:14;13.60;;;3.97;;
15271;SDS011;7737;51.578;7.268;2024-03-23T03:40:41;16.65;;;3.72;;
15271;SDS011;7737;51.578;7.268;2024-03-23T03:43:07;13.15;;;3.67;;
15271;SDS011;7737;51.578;7.268;2024-03-23T03:45:33;8.85;;;3.50;;
15271;SDS011;7737;51.578;7.268;2024-03-23T03:47:58;9.55;;;3.20;;
15271;SDS011;7737;51.578;7.268;2024-03-23T03:50:26;7.50;;;2.90;;
15271;SDS011;7737;51.578;7.268;2024-03-23T03:52:52;10.95;;;3.15;;
15271;SDS011;7737;51.578;7.268;2024-03-23T03:55:18;13.50;;;3.97;;
15271;SDS011;7737;51.578;7.268;2024-03-23T03:57:43;8.63;;;3.08;;
15271;SDS011;7737;51.578;7.268;2024-03-23T04:00:10;11.65;;;3.05;;
15271;SDS011;7737;51.578;7.268;2024-03-23T04:02:36;9.77;;;3.10;;
15271;SDS011;7737;51.578;7.268;2024-03-23T04:05:03;11.52;;;2.92;;
15271;SDS011;7737;51.578;7.268;2024-03-23T04:07:30;10.48;;;3.40;;
15271;SDS011;7737;51.578;7.268;2024-03-23T04:09:56;7.53;;;3.00;;
15271;SDS011;7737;51.578;7.268;2024-03-23T04:12:22;10.13;;;3.10;;
15271;SDS011;7737;51.578;7.268;2024-03-23T04:14:49;8.25;;;2.70;;
15271;SDS011;7737;51.578;7.268;2024-03-23T04:17:14;11.60;;;3.28;;
15271;SDS011;7737;51.578;7.268;2024-03-23T04:19:41;8.57;;;2.83;;
15271;SDS011;7737;51.578;7.268;2024-03-23T04:22:06;8.15;;;2.47;;
15271;SDS011;7737;51.578;7.268;2024-03-23T04:24:34;7.75;;;2.58;;
15271;SDS011;7737;51.578;7.268;2024-03-23T04:27:00;7.78;;;2.40;;
15271;SDS011;7737;51.578;7.268;2024-03-23T04:29:26;9.73;;;2.50;;
15271;SDS011;7737;51.578;7.268;2024-03-23T04:31:52;10.50;;;2.80;;
15271;SDS011;7737;51.578;7.268;2024-03-23T04:34:18;11.32;;;2.70;;
15271;SDS011;7737;51.578;7.268;2024-03-23T04:36:43;10.10;;;3.13;;
15271;SDS011;7737;51.578;7.268;2024-03-23T04:39:10;7.00;;;2.67;;
15271;SDS011;7737;51.578;7.268;2024-03-23T04:41:38;11.73;;;3.03;;
15271;SDS011;7737;51.578;7.268;2024-03-23T04:44:04;11.55;;;3.20;;
15271;SDS011;7737;51.578;7.268;2024-03-23T04:46:30;11.20;;;3.08;;
15271;SDS011;7737;51.578;7.268;2024-03-23T04:48:57;8.77;;;2.78;;
15271;SDS011;7737;51.578;7.268;2024-03-23T04:51:23;8.70;;;2.83;;
15271;SDS011;7737;51.578;7.268;2024-03-23T04:53:50;8.85;;;2.90;;
15271;SDS011;7737;51.578;7.268;2024-03-23T04:56:16;11.23;;;3.10;;
15271;SDS011;7737;51.578;7.268;2024-03-23T04:58:43;8.43;;;3.00;;
15271;SDS011;7737;51.578;7.268;2024-03-23T05:01:10;11.63;;;4.15;;
15271;SDS011;7737;51.578;7.268;2024-03-23T05:03:36;11.93;;;3.90;;
15271;SDS011;7737;51.578;7.268;2024-03-23T05:06:02;12.85;;;4.72;;
15271;SDS011;7737;51.578;7.268;2024-03-23T05:08:28;11.90;;;3.92;;
15271;SDS011;7737;51.578;7.268;2024-03-23T05:10:55;10.70;;;4.07;;
15271;SDS011;7737;51.578;7.268;2024-03-23T05:13:20;11.32;;;4.28;;
15271;SDS011;7737;51.578;7.268;2024-03-23T05:15:51;12.80;;;4.80;;
15271;SDS011;7737;51.578;7.268;2024-03-23T05:18:17;11.57;;;4.80;;
15271;SDS011;7737;51.578;7.268;2024-03-23T05:20:44;13.25;;;5.47;;
15271;SDS011;7737;51.578;7.268;2024-03-23T05:23:09;13.60;;;4.93;;
15271;SDS011;7737;51.578;7.268;2024-03-23T05:25:36;12.77;;;5.75;;
15271;SDS011;7737;51.578;7.268;2024-03-23T05:28:01;12.88;;;5.00;;
15271;SDS011;7737;51.578;7.268;2024-03-23T05:30:28;12.15;;;5.25;;
15271;SDS011;7737;51.578;7.268;2024-03-23T05:32:55;9.57;;;5.07;;
15271;SDS011;7737;51.578;7.268;2024-03-23T05:35:21;14.05;;;5.60;;
15271;SDS011;7737;51.578;7.268;2024-03-23T05:37:47;11.23;;;4.78;;
15271;SDS011;7737;51.578;7.268;2024-03-23T05:40:13;13.60;;;5.00;;
15271;SDS011;7737;51.578;7.268;2024-03-23T05:42:40;14.38;;;5.05;;
15271;SDS011;7737;51.578;7.268;2024-03-23T05:45:07;13.48;;;5.15;;
15271;SDS011;7737;51.578;7.268;2024-03-23T05:47:33;10.85;;;5.00;;
15271;SDS011;7737;51.578;7.268;2024-03-23T05:50:01;14.35;;;5.38;;
15271;SDS011;7737;51.578;7.268;2024-03-23T05:52:26;13.30;;;5.65;;
15271;SDS011;7737;51.578;7.268;2024-03-23T05:54:53;15.48;;;6.47;;
15271;SDS011;7737;51.578;7.268;2024-03-23T05:57:18;11.63;;;5.53;;
15271;SDS011;7737;51.578;7.268;2024-03-23T05:59:45;11.55;;;5.72;;
15271;SDS011;7737;51.578;7.268;2024-03-23T06:02:10;13.02;;;6.00;;
15271;SDS011;7737;51.578;7.268;2024-03-23T06:04:37;14.82;;;5.68;;
15271;SDS011;7737;51.578;7.268;2024-03-23T06:07:04;13.82;;;5.90;;
15271;SDS011;7737;51.578;7.268;2024-03-23T06:09:31;15.60;;;6.55;;
15271;SDS011;7737;51.578;7.268;2024-03-23T06:11:56;12.57;;;6.53;;
15271;SDS011;7737;51.578;7.268;2024-03-23T06:14:23;18.52;;;7.10;;
15271;SDS011;7737;51.578;7.268;2024-03-23T06:16:48;16.02;;;6.82;;
15271;SDS011;7737;51.578;7.268;2024-03-23T06:19:15;14.77;;;6.88;;
15271;SDS011;7737;51.578;7.268;2024-03-23T06:21:42;19.33;;;7.38;;
15271;SDS011;7737;51.578;7.268;2024-03-23T06:24:10;13.23;;;6.88;;
15271;SDS011;7737;51.578;7.268;2024-03-23T06:26:36;21.10;;;7.70;;
15271;SDS011;7737;51.578;7.268;2024-03-23T06:29:02;16.75;;;8.68;;
15271;SDS011;7737;51.578;7.268;2024-03-23T06:31:28;19.15;;;8.23;;
15271;SDS011;7737;51.578;7.268;2024-03-23T06:33:54;20.42;;;9.45;;
15271;SDS011;7737;51.578;7.268;2024-03-23T06:36:20;14.88;;;9.32;;
15271;SDS011;7737;51.578;7.268;2024-03-23T06:38:46;20.30;;;10.00;;
15271;SDS011;7737;51.578;7.268;2024-03-23T06:41:13;16.85;;;9.45;;
15271;SDS011;7737;51.578;7.268;2024-03-23T06:43:40;18.08;;;9.30;;
15271;SDS011;7737;51.578;7.268;2024-03-23T06:46:05;17.77;;;9.55;;
15271;SDS011;7737;51.578;7.268;2024-03-23T06:48:32;18.75;;;9.10;;
15271;SDS011;7737;51.578;7.268;2024-03-23T06:50:57;17.83;;;9.13;;
15271;SDS011;7737;51.578;7.268;2024-03-23T06:53:24;16.98;;;8.38;;
15271;SDS011;7737;51.578;7.268;2024-03-23T06:55:50;18.42;;;8.50;;
15271;SDS011;7737;51.578;7.268;2024-03-23T06:58:20;15.10;;;8.05;;
15271;SDS011;7737;51.578;7.268;2024-03-23T07:00:46;16.42;;;8.15;;
15271;SDS011;7737;51.578;7.268;2024-03-23T07:03:12;14.35;;;7.18;;
15271;SDS011;7737;51.578;7.268;2024-03-23T07:05:37;17.92;;;8.32;;
15271;SDS011;7737;51.578;7.268;2024-03-23T07:08:04;13.48;;;7.90;;
15271;SDS011;7737;51.578;7.268;2024-03-23T07:10:30;16.45;;;7.53;;
15271;SDS011;7737;51.578;7.268;2024-03-23T07:12:56;15.80;;;8.90;;
15271;SDS011;7737;51.578;7.268;2024-03-23T07:15:23;19.98;;;9.15;;
15271;SDS011;7737;51.578;7.268;2024-03-23T07:17:50;21.45;;;11.07;;
15271;SDS011;7737;51.578;7.268;2024-03-23T07:20:15;21.83;;;10.52;;
15271;SDS011;7737;51.578;7.268;2024-03-23T07:22:42;20.80;;;10.57;;
15271;SDS011;7737;51.578;7.268;2024-03-23T07:25:07;19.50;;;11.38;;
15271;SDS011;7737;51.578;7.268;2024-03-23T07:27:34;18.67;;;10.63;;
15271;SDS011;7737;51.578;7.268;2024-03-23T07:29:59;17.55;;;10.43;;
15271;SDS011;7737;51.578;7.268;2024-03-23T07:32:27;17.00;;;9.20;;
15271;SDS011;7737;51.578;7.268;2024-03-23T07:34:53;16.10;;;9.23;;
15271;SDS011;7737;51.578;7.268;2024-03-23T07:37:19;14.75;;;9.10;;
15271;SDS011;7737;51.578;7.268;2024-03-23T07:39:45;18.85;;;8.48;;
15271;SDS011;7737;51.578;7.268;2024-03-23T07:42:11;14.77;;;8.30;;
15271;SDS011;7737;51.578;7.268;2024-03-23T07:44:37;17.25;;;8.63;;
15271;SDS011;7737;51.578;7.268;2024-03-23T07:47:03;14.65;;;7.97;;
15271;SDS011;7737;51.578;7.268;2024-03-23T07:49:30;18.55;;;8.30;;
15271;SDS011;7737;51.578;7.268;2024-03-23T07:51:57;14.05;;;7.90;;
15271;SDS011;7737;51.578;7.268;2024-03-23T07:54:22;15.15;;;8.30;;
15271;SDS011;7737;51.578;7.268;2024-03-23T07:56:49;16.45;;;7.72;;
15271;SDS011;7737;51.578;7.268;2024-03-23T07:59:14;14.15;;;6.53;;
15271;SDS011;7737;51.578;7.268;2024-03-23T08:01:40;16.48;;;6.18;;
15271;SDS011;7737;51.578;7.268;2024-03-23T08:04:06;13.70;;;5.60;;
15271;SDS011;7737;51.578;7.268;2024-03-23T08:06:34;13.10;;;5.22;;
15271;SDS011;7737;51.578;7.268;2024-03-23T08:08:59;13.50;;;4.97;;
15271;SDS011;7737;51.578;7.268;2024-03-23T08:11:26;13.43;;;5.07;;
15271;SDS011;7737;51.578;7.268;2024-03-23T08:13:51;15.70;;;4.82;;
15271;SDS011;7737;51.578;7.268;2024-03-23T08:16:18;12.77;;;4.88;;
15271;SDS011;7737;51.578;7.268;2024-03-23T08:18:44;13.50;;;4.65;;
15271;SDS011;7737;51.578;7.268;2024-03-23T08:21:10;12.82;;;4.72;;
15271;SDS011;7737;51.578;7.268;2024-03-23T08:23:38;14.35;;;4.80;;
15271;SDS011;7737;51.578;7.268;2024-03-23T08:26:05;14.27;;;4.80;;
15271;SDS011;7737;51.578;7.268;2024-03-23T08:28:31;14.52;;;4.57;;
15271;SDS011;7737;51.578;7.268;2024-03-23T08:31:00;12.35;;;4.68;;
15271;SDS011;7737;51.578;7.268;2024-03-23T08:33:26;13.15;;;5.00;;
15271;SDS011;7737;51.578;7.268;2024-03-23T08:35:53;12.13;;;4.70;;
15271;SDS011;7737;51.578;7.268;2024-03-23T08:38:19;11.30;;;5.00;;
15271;SDS011;7737;51.578;7.268;2024-03-23T08:40:47;10.65;;;4.50;;
15271;SDS011;7737;51.578;7.268;2024-03-23T08:43:12;14.82;;;4.60;;
15271;SDS011;7737;51.578;7.268;2024-03-23T08:45:39;12.80;;;4.40;;
15271;SDS011;7737;51.578;7.268;2024-03-23T08:48:04;12.55;;;4.45;;
15271;SDS011;7737;51.578;7.268;2024-03-23T08:50:31;13.50;;;4.43;;
15271;SDS011;7737;51.578;7.268;2024-03-23T08:52:57;10.82;;;5.07;;
15271;SDS011;7737;51.578;7.268;2024-03-23T08:55:23;12.23;;;4.68;;
15271;SDS011;7737;51.578;7.268;2024-03-23T08:57:50;11.50;;;4.85;;
15271;SDS011;7737;51.578;7.268;2024-03-23T09:00:16;12.82;;;5.13;;
15271;SDS011;7737;51.578;7.268;2024-03-23T09:02:42;13.75;;;4.88;;
15271;SDS011;7737;51.578;7.268;2024-03-23T09:05:08;12.25;;;4.18;;
15271;SDS011;7737;51.578;7.268;2024-03-23T09:07:34;12.38;;;4.78;;
15271;SDS011;7737;51.578;7.268;2024-03-23T09:10:00;12.43;;;4.60;;
15271;SDS011;7737;51.578;7.268;2024-03-23T09:12:26;10.50;;;3.67;;
15271;SDS011;7737;51.578;7.268;2024-03-23T09:14:54;11.60;;;4.05;;
15271;SDS011;7737;51.578;7.268;2024-03-23T09:17:19;12.35;;;3.90;;
15271;SDS011;7737;51.578;7.268;2024-03-23T09:19:46;12.75;;;3.55;;
15271;SDS011;7737;51.578;7.268;2024-03-23T09:22:11;9.95;;;3.00;;
15271;SDS011;7737;51.578;7.268;2024-03-23T09:24:38;9.27;;;3.08;;
15271;SDS011;7737;51.578;7.268;2024-03-23T09:27:04;11.88;;;3.65;;
15271;SDS011;7737;51.578;7.268;2024-03-23T09:29:31;9.70;;;2.80;;
15271;SDS011;7737;51.578;7.268;2024-03-23T09:31:57;10.77;;;2.92;;
15271;SDS011;7737;51.578;7.268;2024-03-23T09:34:24;12.13;;;2.83;;
15271;SDS011;7737;51.578;7.268;2024-03-23T09:36:50;7.65;;;2.33;;
15271;SDS011;7737;51.578;7.268;2024-03-23T09:39:17;6.30;;;1.95;;
15271;SDS011;7737;51.578;7.268;2024-03-23T09:41:43;5.80;;;1.90;;
15271;SDS011;7737;51.578;7.268;2024-03-23T09:44:10;8.07;;;2.40;;
15271;SDS011;7737;51.578;7.268;2024-03-23T09:46:35;7.55;;;2.38;;
15271;SDS011;7737;51.578;7.268;2024-03-23T09:49:05;7.22;;;2.25;;
15271;SDS011;7737;51.578;7.268;2024-03-23T09:51:35;6.88;;;2.55;;
15271;SDS011;7737;51.578;7.268;2024-03-23T09:54:02;6.57;;;1.90;;
15271;SDS011;7737;51.578;7.268;2024-03-23T09:56:27;5.35;;;2.30;;
15271;SDS011;7737;51.578;7.268;2024-03-23T09:58:59;6.50;;;2.20;;
15271;SDS011;7737;51.578;7.268;2024-03-23T10:01:25;5.45;;;1.95;;
15271;SDS011;7737;51.578;7.268;2024-03-23T10:03:52;8.07;;;2.28;;
15271;SDS011;7737;51.578;7.268;2024-03-23T10:06:21;6.50;;;2.50;;
15271;SDS011;7737;51.578;7.268;2024-03-23T10:08:49;6.70;;;2.03;;
15271;SDS011;7737;51.578;7.268;2024-03-23T10:11:15;6.50;;;2.03;;
15271;SDS011;7737;51.578;7.268;2024-03-23T10:13:43;6.65;;;2.15;;
15271;SDS011;7737;51.578;7.268;2024-03-23T10:16:09;7.45;;;2.20;;
15271;SDS011;7737;51.578;7.268;2024-03-23T10:18:39;9.25;;;2.10;;
15271;SDS011;7737;51.578;7.268;2024-03-23T10:21:08;9.32;;;3.55;;
15271;SDS011;7737;51.578;7.268;2024-03-23T10:23:37;6.30;;;2.30;;
15271;SDS011;7737;51.578;7.268;2024-03-23T10:26:13;6.70;;;2.42;;
15271;SDS011;7737;51.578;7.268;2024-03-23T10:28:53;7.25;;;2.25;;
15271;SDS011;7737;51.578;7.268;2024-03-23T10:31:20;7.32;;;2.42;;
15271;SDS011;7737;51.578;7.268;2024-03-23T10:33:47;6.82;;;2.25;;
15271;SDS011;7737;51.578;7.268;2024-03-23T10:36:13;6.70;;;2.00;;
15271;SDS011;7737;51.578;7.268;2024-03-23T10:38:42;5.70;;;2.15;;
15271;SDS011;7737;51.578;7.268;2024-03-23T10:41:09;5.60;;;1.67;;
15271;SDS011;7737;51.578;7.268;2024-03-23T10:43:36;9.23;;;1.90;;
15271;SDS011;7737;51.578;7.268;2024-03-23T10:46:02;7.18;;;2.20;;
15271;SDS011;7737;51.578;7.268;2024-03-23T10:48:29;7.10;;;3.03;;
15271;SDS011;7737;51.578;7.268;2024-03-23T10:50:55;8.88;;;2.95;;
15271;SDS011;7737;51.578;7.268;2024-03-23T10:53:22;6.63;;;2.00;;
15271;SDS011;7737;51.578;7.268;2024-03-23T10:55:52;8.90;;;2.50;;
15271;SDS011;7737;51.578;7.268;2024-03-23T10:58:21;6.22;;;1.90;;
15271;SDS011;7737;51.578;7.268;2024-03-23T11:00:49;6.85;;;2.00;;
15271;SDS011;7737;51.578;7.268;2024-03-23T11:03:34;7.05;;;2.00;;
15271;SDS011;7737;51.578;7.268;2024-03-23T11:06:02;5.93;;;1.85;;
15271;SDS011;7737;51.578;7.268;2024-03-23T11:08:29;7.95;;;1.67;;
15271;SDS011;7737;51.578;7.268;2024-03-23T11:13:49;7.72;;;1.60;;
15271;SDS011;7737;51.578;7.268;2024-03-23T11:16:17;5.00;;;1.30;;
15271;SDS011;7737;51.578;7.268;2024-03-23T11:18:46;5.63;;;1.33;;
15271;SDS011;7737;51.578;7.268;2024-03-23T11:21:15;3.72;;;1.20;;
15271;SDS011;7737;51.578;7.268;2024-03-23T11:24:17;3.25;;;1.25;;
15271;SDS011;7737;51.578;7.268;2024-03-23T11:26:44;5.40;;;0.90;;
15271;SDS011;7737;51.578;7.268;2024-03-23T11:29:11;3.20;;;1.02;;
15271;SDS011;7737;51.578;7.268;2024-03-23T11:31:37;2.90;;;0.80;;
15271;SDS011;7737;51.578;7.268;2024-03-23T11:34:05;6.05;;;1.50;;
15271;SDS011;7737;51.578;7.268;2024-03-23T11:36:31;2.47;;;1.17;;
15271;SDS011;7737;51.578;7.268;2024-03-23T11:38:58;4.20;;;1.45;;
15271;SDS011;7737;51.578;7.268;2024-03-23T11:41:24;3.85;;;1.10;;
15271;SDS011;7737;51.578;7.268;2024-03-23T11:43:51;4.47;;;1.27;;
15271;SDS011;7737;51.578;7.268;2024-03-23T11:46:24;4.97;;;1.50;;
15271;SDS011;7737;51.578;7.268;2024-03-23T11:48:50;5.88;;;1.63;;
15271;SDS011;7737;51.578;7.268;2024-03-23T11:51:16;5.72;;;1.55;;
15271;SDS011;7737;51.578;7.268;2024-03-23T11:53:43;4.05;;;1.45;;
15271;SDS011;7737;51.578;7.268;2024-03-23T11:56:08;3.47;;;1.30;;
15271;SDS011;7737;51.578;7.268;2024-03-23T11:58:35;3.60;;;1.30;;
15271;SDS011;7737;51.578;7.268;2024-03-23T12:01:01;5.57;;;1.80;;
15271;SDS011;7737;51.578;7.268;2024-03-23T12:03:31;4.47;;;1.38;;
15271;SDS011;7737;51.578;7.268;2024-03-23T12:05:59;5.85;;;1.80;;
15271;SDS011;7737;51.578;7.268;2024-03-23T12:08:28;6.68;;;2.45;;
15271;SDS011;7737;51.578;7.268;2024-03-23T12:11:04;6.18;;;2.00;;
15271;SDS011;7737;51.578;7.268;2024-03-23T12:13:32;4.68;;;1.70;;
15271;SDS011;7737;51.578;7.268;2024-03-23T12:16:08;4.95;;;1.92;;
15271;SDS011;7737;51.578;7.268;2024-03-23T12:18:37;6.75;;;1.90;;
15271;SDS011;7737;51.578;7.268;2024-03-23T12:21:03;5.97;;;2.80;;
15271;SDS011;7737;51.578;7.268;2024-03-23T12:23:30;6.80;;;2.85;;
15271;SDS011;7737;51.578;7.268;2024-03-23T12:25:55;5.85;;;2.78;;
15271;SDS011;7737;51.578;7.268;2024-03-23T12:28:22;5.38;;;3.10;;
15271;SDS011;7737;51.578;7.268;2024-03-23T12:30:48;6.13;;;3.47;;
15271;SDS011;7737;51.578;7.268;2024-03-23T12:33:15;6.47;;;2.60;;
15271;SDS011;7737;51.578;7.268;2024-03-23T12:35:41;9.05;;;3.10;;
15271;SDS011;7737;51.578;7.268;2024-03-23T12:38:08;7.75;;;2.45;;
15271;SDS011;7737;51.578;7.268;2024-03-23T12:40:33;4.97;;;2.50;;
15271;SDS011;7737;51.578;7.268;2024-03-23T12:43:00;3.15;;;1.70;;
15271;SDS011;7737;51.578;7.268;2024-03-23T12:45:25;4.22;;;1.35;;
15271;SDS011;7737;51.578;7.268;2024-03-23T12:47:52;3.70;;;1.65;;
15271;SDS011;7737;51.578;7.268;2024-03-23T12:50:19;5.07;;;1.80;;
15271;SDS011;7737;51.578;7.268;2024-03-23T12:52:47;2.75;;;1.35;;
15271;SDS011;7737;51.578;7.268;2024-03-23T12:55:13;4.40;;;1.58;;
15271;SDS011;7737;51.578;7.268;2024-03-23T12:57:39;4.85;;;1.42;;
15271;SDS011;7737;51.578;7.268;2024-03-23T13:00:06;4.00;;;1.40;;
15271;SDS011;7737;51.578;7.268;2024-03-23T13:02:35;3.42;;;1.40;;
15271;SDS011;7737;51.578;7.268;2024-03-23T13:05:00;7.45;;;1.98;;
15271;SDS011;7737;51.578;7.268;2024-03-23T13:07:27;7.93;;;1.95;;
15271;SDS011;7737;51.578;7.268;2024-03-23T13:09:54;4.88;;;1.30;;
15271;SDS011;7737;51.578;7.268;2024-03-23T13:12:21;5.38;;;1.20;;
15271;SDS011;7737;51.578;7.268;2024-03-23T13:14:47;5.07;;;1.23;;
15271;SDS011;7737;51.578;7.268;2024-03-23T13:17:14;4.28;;;1.30;;
15271;SDS011;7737;51.578;7.268;2024-03-23T13:19:40;3.95;;;1.60;;
15271;SDS011;7737;51.578;7.268;2024-03-23T13:22:07;3.20;;;1.50;;
15271;SDS011;7737;51.578;7.268;2024-03-23T13:24:33;4.20;;;1.98;;
15271;SDS011;7737;51.578;7.268;2024-03-23T13:27:01;3.25;;;1.60;;
15271;SDS011;7737;51.578;7.268;2024-03-23T13:29:26;5.20;;;2.10;;
15271;SDS011;7737;51.578;7.268;2024-03-23T13:31:53;3.95;;;1.90;;
15271;SDS011;7737;51.578;7.268;2024-03-23T13:34:18;4.35;;;2.03;;
15271;SDS011;7737;51.578;7.268;2024-03-23T13:36:45;5.75;;;2.00;;
15271;SDS011;7737;51.578;7.268;2024-03-23T13:39:12;6.13;;;1.80;;
15271;SDS011;7737;51.578;7.268;2024-03-23T13:41:39;6.93;;;2.28;;
15271;SDS011;7737;51.578;7.268;2024-03-23T13:44:06;5.15;;;1.75;;
15271;SDS011;7737;51.578;7.268;2024-03-23T13:46:35;4.60;;;1.70;;
15271;SDS011;7737;51.578;7.268;2024-03-23T13:49:01;6.15;;;1.85;;
15271;SDS011;7737;51.578;7.268;2024-03-23T13:51:28;3.92;;;1.58;;
15271;SDS011;7737;51.578;7.268;2024-03-23T13:53:53;3.90;;;1.60;;
15271;SDS011;7737;51.578;7.268;2024-03-23T13:56:21;4.78;;;1.70;;
15271;SDS011;7737;51.578;7.268;2024-03-23T13:58:47;2.03;;;1.10;;
15271;SDS011;7737;51.578;7.268;2024-03-23T14:01:15;2.22;;;1.00;;
15271;SDS011;7737;51.578;7.268;2024-03-23T14:03:41;4.60;;;1.30;;
15271;SDS011;7737;51.578;7.268;2024-03-23T14:06:08;3.70;;;1.10;;
15271;SDS011;7737;51.578;7.268;2024-03-23T14:08:34;2.67;;;1.02;;
15271;SDS011;7737;51.578;7.268;2024-03-23T14:11:04;5.70;;;1.52;;
15271;SDS011;7737;51.578;7.268;2024-03-23T14:13:30;4.55;;;1.50;;
15271;SDS011;7737;51.578;7.268;2024-03-23T14:15:57;3.80;;;1.73;;
15271;SDS011;7737;51.578;7.268;2024-03-23T14:18:24;6.50;;;2.20;;
15271;SDS011;7737;51.578;7.268;2024-03-23T14:20:51;5.65;;;2.40;;
15271;SDS011;7737;51.578;7.268;2024-03-23T14:23:16;5.22;;;2.08;;
15271;SDS011;7737;51.578;7.268;2024-03-23T14:25:43;4.40;;;2.20;;
15271;SDS011;7737;51.578;7.268;2024-03-23T14:28:08;5.15;;;2.47;;
15271;SDS011;7737;51.578;7.268;2024-03-23T14:30:39;5.93;;;2.70;;
15271;SDS011;7737;51.578;7.268;2024-03-23T14:33:05;5.65;;;2.33;;
15271;SDS011;7737;51.578;7.268;2024-03-23T14:35:33;4.85;;;2.10;;
15271;SDS011;7737;51.578;7.268;2024-03-23T14:37:58;5.82;;;2.10;;
15271;SDS011;7737;51.578;7.268;2024-03-23T14:40:25;4.88;;;2.00;;
15271;SDS011;7737;51.578;7.268;2024-03-23T14:42:52;4.50;;;1.77;;
15271;SDS011;7737;51.578;7.268;2024-03-23T14:45:19;6.53;;;2.33;;
15271;SDS011;7737;51.578;7.268;2024-03-23T14:47:44;8.93;;;4.15;;
15271;SDS011;7737;51.578;7.268;2024-03-23T14:50:11;6.53;;;2.30;;
15271;SDS011;7737;51.578;7.268;2024-03-23T14:52:41;5.18;;;2.08;;
15271;SDS011;7737;51.578;7.268;2024-03-23T14:55:08;7.40;;;1.95;;
15271;SDS011;7737;51.578;7.268;2024-03-23T14:57:34;3.50;;;1.27;;
15271;SDS011;7737;51.578;7.268;2024-03-23T15:00:01;4.35;;;1.40;;
15271;SDS011;7737;51.578;7.268;2024-03-23T15:02:29;3.22;;;1.50;;
15271;SDS011;7737;51.578;7.268;2024-03-23T15:04:57;5.43;;;1.65;;
15271;SDS011;7737;51.578;7.268;2024-03-23T15:07:23;4.38;;;1.45;;
15271;SDS011;7737;51.578;7.268;2024-03-23T15:09:50;4.75;;;1.63;;
15271;SDS011;7737;51.578;7.268;2024-03-23T15:12:16;2.92;;;1.60;;
15271;SDS011;7737;51.578;7.268;2024-03-23T15:14:42;4.63;;;1.58;;
15271;SDS011;7737;51.578;7.268;2024-03-23T15:17:08;4.95;;;1.33;;
15271;SDS011;7737;51.578;7.268;2024-03-23T15:19:34;3.60;;;1.30;;
15271;SDS011;7737;51.578;7.268;2024-03-23T15:21:59;3.22;;;1.38;;
15271;SDS011;7737;51.578;7.268;2024-03-23T15:24:26;6.47;;;1.60;;
15271;SDS011;7737;51.578;7.268;2024-03-23T15:26:53;3.92;;;1.30;;
15271;SDS011;7737;51.578;7.268;2024-03-23T15:29:20;5.35;;;1.40;;
15271;SDS011;7737;51.578;7.268;2024-03-23T15:31:46;4.82;;;1.60;;
15271;SDS011;7737;51.578;7.268;2024-03-23T15:34:15;3.25;;;1.85;;
15271;SDS011;7737;51.578;7.268;2024-03-23T15:36:41;3.85;;;1.52;;
15271;SDS011;7737;51.578;7.268;2024-03-23T15:39:08;5.13;;;1.20;;
15271;SDS011;7737;51.578;7.268;2024-03-23T15:41:34;4.57;;;1.15;;
15271;SDS011;7737;51.578;7.268;2024-03-23T15:44:03;4.53;;;1.33;;
15271;SDS011;7737;51.578;7.268;2024-03-23T15:46:29;4.57;;;1.20;;
15271;SDS011;7737;51.578;7.268;2024-03-23T15:48:55;5.97;;;1.67;;